TimeHST,TemperatureF,Dew PointF,Humidity,Sea Level PressureIn,VisibilityMPH,Wind Direction,Wind SpeedMPH,Gust SpeedMPH,PrecipitationIn,Events,Conditions,WindDirDegrees,DateUTC
12:53 AM,75.9,63.0,64,30.00,10.0,East,10.4,-,N/A,,Partly Cloudy,100,2012-11-10 10:53:00
1:53 AM,77.0,64.0,64,29.99,10.0,ESE,5.8,-,N/A,,Mostly Cloudy,120,2012-11-10 11:53:00
2:53 AM,75.0,64.0,69,29.98,10.0,East,4.6,-,N/A,,Scattered Clouds,100,2012-11-10 12:53:00
3:53 AM,73.9,61.0,64,29.97,10.0,Calm,Calm,-,N/A,,Partly Cloudy,0,2012-11-10 13:53:00
4:53 AM,73.0,62.1,68,29.98,10.0,NE,3.5,-,N/A,,Clear,40,2012-11-10 14:53:00
5:53 AM,70.0,61.0,73,29.99,10.0,NNE,4.6,-,N/A,,Clear,20,2012-11-10 15:53:00
6:53 AM,70.0,60.1,71,30.01,10.0,East,3.5,-,N/A,,Clear,80,2012-11-10 16:53:00
7:53 AM,75.9,62.1,62,30.02,10.0,ESE,3.5,-,N/A,,Clear,120,2012-11-10 17:53:00
8:53 AM,80.1,63.0,56,30.03,10.0,South,3.5,-,N/A,,Clear,190,2012-11-10 18:53:00
9:53 AM,80.1,63.0,56,30.03,10.0,WNW,3.5,-,N/A,,Clear,300,2012-11-10 19:53:00
10:53 AM,82.0,63.0,52,30.02,10.0,Variable,4.6,-,N/A,,Clear,0,2012-11-10 20:53:00
11:53 AM,82.0,62.1,51,29.99,10.0,SSW,11.5,-,N/A,,Mostly Cloudy,210,2012-11-10 21:53:00
12:53 PM,82.0,63.0,52,29.96,10.0,SSW,10.4,-,N/A,,Mostly Cloudy,200,2012-11-10 22:53:00
1:53 PM,82.9,64.0,53,29.93,10.0,SSW,11.5,-,N/A,,Clear,210,2012-11-10 23:53:00
2:53 PM,82.0,64.0,54,29.92,10.0,SSW,9.2,-,N/A,,Mostly Cloudy,200,2012-11-11 00:53:00
3:53 PM,81.0,64.9,58,29.91,10.0,SSW,10.4,-,N/A,,Partly Cloudy,210,2012-11-11 01:53:00
4:53 PM,81.0,64.0,56,29.93,10.0,South,4.6,-,N/A,,Mostly Cloudy,190,2012-11-11 02:53:00
5:53 PM,80.1,64.9,60,29.95,10.0,SSW,4.6,-,N/A,,Mostly Cloudy,200,2012-11-11 03:53:00
6:53 PM,79.0,61.0,54,29.96,10.0,ESE,4.6,-,N/A,,Clear,110,2012-11-11 04:53:00
7:53 PM,77.0,57.0,50,29.99,10.0,North,8.1,-,N/A,,Clear,10,2012-11-11 05:53:00
8:53 PM,75.0,60.1,60,29.99,10.0,NE,4.6,-,N/A,,Clear,50,2012-11-11 06:53:00
9:53 PM,75.0,64.0,69,29.99,10.0,East,4.6,-,N/A,,Clear,90,2012-11-11 07:53:00
10:53 PM,75.0,60.1,60,30.00,10.0,NE,5.8,-,N/A,,Overcast,40,2012-11-11 08:53:00
11:53 PM,75.0,60.1,60,29.98,10.0,ENE,3.5,-,N/A,,Partly Cloudy,60,2012-11-11 09:53:00